sensor_id;sensor_type;location;lat;lon;timestamp;P1;P2;P0
77516;PMS7003;68414;53.946;27.634;2024-02-16T00:00:31;8.683333;7.666667;4.916667
77516;PMS7003;68414;53.946;27.634;2024-02-16T00:01:31;10.500000;9.800000;7.166667
77516;PMS7003;68414;53.946;27.634;2024-02-16T00:02:31;9.166667;8.600000;6.050000
77516;PMS7003;68414;53.946;27.634;2024-02-16T00:03:31;9.516666;8.700000;6.116667
77516;PMS7003;68414;53.946;27.634;2024-02-16T00:04:31;9.916667;9.066667;6.333333
77516;PMS7003;68414;53.946;27.634;2024-02-16T00:05:31;9.000000;8.350000;6.450000
77516;PMS7003;68414;53.946;27.634;2024-02-16T00:06:31;10.333333;9.400000;7.916667
77516;PMS7003;68414;53.946;27.634;2024-02-16T00:07:31;11.516666;9.983334;7.266667
77516;PMS7003;68414;53.946;27.634;2024-02-16T00:08:31;10.333333;10.133333;7.350000
77516;PMS7003;68414;53.946;27.634;2024-02-16T00:09:31;11.100000;10.616667;7.483333
77516;PMS7003;68414;53.946;27.634;2024-02-16T00:10:31;11.116667;9.883333;7.083333
77516;PMS7003;68414;53.946;27.634;2024-02-16T00:11:31;17.650000;15.683333;10.883333
77516;PMS7003;68414;53.946;27.634;2024-02-16T00:12:33;12.550000;11.050000;7.816667
77516;PMS7003;68414;53.946;27.634;2024-02-16T00:13:31;11.000000;10.066667;7.633333
77516;PMS7003;68414;53.946;27.634;2024-02-16T00:14:31;10.366667;9.383333;6.783333
77516;PMS7003;68414;53.946;27.634;2024-02-16T00:15:31;11.400000;10.333333;7.566667
77516;PMS7003;68414;53.946;27.634;2024-02-16T00:16:31;12.166667;11.066667;7.950000
77516;PMS7003;68414;53.946;27.634;2024-02-16T00:17:31;10.050000;9.966666;6.566667
77516;PMS7003;68414;53.946;27.634;2024-02-16T00:18:31;10.283334;10.083333;6.983333
77516;PMS7003;68414;53.946;27.634;2024-02-16T00:19:31;10.700000;9.466666;6.666667
77516;PMS7003;68414;53.946;27.634;2024-02-16T00:20:31;13.083333;11.766666;7.950000
77516;PMS7003;68414;53.946;27.634;2024-02-16T00:21:31;11.266666;10.883333;7.900000
77516;PMS7003;68414;53.946;27.634;2024-02-16T00:22:31;10.133333;10.133333;8.233334
77516;PMS7003;68414;53.946;27.634;2024-02-16T00:23:31;10.433333;10.033334;6.866667
77516;PMS7003;68414;53.946;27.634;2024-02-16T00:24:31;10.716666;10.400000;7.983333
77516;PMS7003;68414;53.946;27.634;2024-02-16T00:25:31;12.216666;11.083333;8.183333
77516;PMS7003;68414;53.946;27.634;2024-02-16T00:26:31;11.050000;10.666667;8.200000
77516;PMS7003;68414;53.946;27.634;2024-02-16T00:27:30;10.450000;10.333333;7.666667
77516;PMS7003;68414;53.946;27.634;2024-02-16T00:28:30;12.100000;10.733334;6.650000
77516;PMS7003;68414;53.946;27.634;2024-02-16T00:29:31;14.333333;11.233334;8.250000
77516;PMS7003;68414;53.946;27.634;2024-02-16T00:30:31;11.683333;10.716666;7.350000
77516;PMS7003;68414;53.946;27.634;2024-02-16T00:31:31;11.533334;9.966666;6.566667
77516;PMS7003;68414;53.946;27.634;2024-02-16T00:32:31;10.600000;9.483334;6.616667
77516;PMS7003;68414;53.946;27.634;2024-02-16T00:33:31;10.716666;10.133333;6.700000
77516;PMS7003;68414;53.946;27.634;2024-02-16T00:34:31;10.633333;10.533334;7.000000
77516;PMS7003;68414;53.946;27.634;2024-02-16T00:35:31;10.700000;9.450000;6.816667
77516;PMS7003;68414;53.946;27.634;2024-02-16T00:36:31;11.466666;10.083333;7.833333
77516;PMS7003;68414;53.946;27.634;2024-02-16T00:37:31;11.250000;10.350000;6.516667
77516;PMS7003;68414;53.946;27.634;2024-02-16T00:38:31;9.766666;9.766666;6.633333
77516;PMS7003;68414;53.946;27.634;2024-02-16T00:39:31;10.350000;9.550000;6.616667
77516;PMS7003;68414;53.946;27.634;2024-02-16T00:40:30;12.366667;11.233334;8.566667
77516;PMS7003;68414;53.946;27.634;2024-02-16T00:41:30;11.616667;10.216666;6.816667
77516;PMS7003;68414;53.946;27.634;2024-02-16T00:42:30;11.450000;10.383333;7.066667
77516;PMS7003;68414;53.946;27.634;2024-02-16T00:43:31;11.366667;10.333333;7.200000
77516;PMS7003;68414;53.946;27.634;2024-02-16T00:45:34;12.133333;12.000000;8.083333
77516;PMS7003;68414;53.946;27.634;2024-02-16T00:46:35;11.900000;10.816667;7.700000
77516;PMS7003;68414;53.946;27.634;2024-02-16T00:47:30;13.750000;11.483334;8.033334
77516;PMS7003;68414;53.946;27.634;2024-02-16T00:48:32;12.066667;11.083333;8.116667
77516;PMS7003;68414;53.946;27.634;2024-02-16T00:51:32;12.266666;12.100000;8.483334
77516;PMS7003;68414;53.946;27.634;2024-02-16T00:52:34;10.033334;9.766666;6.483333
77516;PMS7003;68414;53.946;27.634;2024-02-16T00:53:33;11.733334;11.733334;8.066667
77516;PMS7003;68414;53.946;27.634;2024-02-16T00:54:31;10.866667;10.616667;8.116667
77516;PMS7003;68414;53.946;27.634;2024-02-16T00:55:31;11.416667;10.683333;7.666667
77516;PMS7003;68414;53.946;27.634;2024-02-16T00:56:36;11.133333;10.600000;8.350000
77516;PMS7003;68414;53.946;27.634;2024-02-16T00:57:32;10.700000;9.583333;7.466667
77516;PMS7003;68414;53.946;27.634;2024-02-16T00:58:31;11.450000;10.650000;7.433333
77516;PMS7003;68414;53.946;27.634;2024-02-16T00:59:31;11.350000;10.216666;7.266667
77516;PMS7003;68414;53.946;27.634;2024-02-16T01:00:36;11.883333;11.000000;7.366667
77516;PMS7003;68414;53.946;27.634;2024-02-16T01:01:32;12.466666;12.466666;9.683333
77516;PMS7003;68414;53.946;27.634;2024-02-16T01:02:31;13.083333;11.366667;7.550000
77516;PMS7003;68414;53.946;27.634;2024-02-16T01:03:31;13.933333;13.250000;8.383333
77516;PMS7003;68414;53.946;27.634;2024-02-16T01:04:31;12.116667;10.550000;8.250000
77516;PMS7003;68414;53.946;27.634;2024-02-16T01:05:36;15.350000;13.900000;9.400000
77516;PMS7003;68414;53.946;27.634;2024-02-16T01:06:33;13.200000;11.833333;8.783334
77516;PMS7003;68414;53.946;27.634;2024-02-16T01:07:36;11.383333;11.200000;8.683333
77516;PMS7003;68414;53.946;27.634;2024-02-16T01:08:32;11.683333;11.300000;8.650000
77516;PMS7003;68414;53.946;27.634;2024-02-16T01:09:30;12.583333;11.350000;8.583333
77516;PMS7003;68414;53.946;27.634;2024-02-16T01:10:32;12.933333;11.750000;7.400000
77516;PMS7003;68414;53.946;27.634;2024-02-16T01:12:34;13.350000;12.633333;9.033334
77516;PMS7003;68414;53.946;27.634;2024-02-16T01:13:34;13.500000;12.483334;9.200000
77516;PMS7003;68414;53.946;27.634;2024-02-16T01:14:31;14.033334;13.033334;9.183333
77516;PMS7003;68414;53.946;27.634;2024-02-16T01:16:31;12.666667;11.783334;8.716666
77516;PMS7003;68414;53.946;27.634;2024-02-16T01:17:32;12.666667;11.616667;8.983334
77516;PMS7003;68414;53.946;27.634;2024-02-16T01:18:31;13.750000;12.750000;8.950000
77516;PMS7003;68414;53.946;27.634;2024-02-16T01:19:32;14.700000;12.733334;9.516666
77516;PMS7003;68414;53.946;27.634;2024-02-16T01:20:31;10.983334;10.233334;7.250000
77516;PMS7003;68414;53.946;27.634;2024-02-16T01:22:34;12.433333;10.950000;8.816667
77516;PMS7003;68414;53.946;27.634;2024-02-16T01:24:30;11.850000;11.850000;9.116667
77516;PMS7003;68414;53.946;27.634;2024-02-16T01:25:31;14.216666;13.233334;8.783334
77516;PMS7003;68414;53.946;27.634;2024-02-16T01:26:33;13.216666;11.616667;8.416667
77516;PMS7003;68414;53.946;27.634;2024-02-16T01:27:31;13.000000;11.983334;8.866667
77516;PMS7003;68414;53.946;27.634;2024-02-16T01:29:34;13.633333;12.683333;9.400000
77516;PMS7003;68414;53.946;27.634;2024-02-16T01:30:33;12.350000;11.450000;8.700000
77516;PMS7003;68414;53.946;27.634;2024-02-16T01:31:34;13.433333;12.683333;9.183333
77516;PMS7003;68414;53.946;27.634;2024-02-16T01:32:31;13.016666;12.266666;8.916667
77516;PMS7003;68414;53.946;27.634;2024-02-16T01:33:32;12.716666;11.533334;9.200000
77516;PMS7003;68414;53.946;27.634;2024-02-16T01:34:31;12.566667;12.116667;8.950000
77516;PMS7003;68414;53.946;27.634;2024-02-16T01:35:30;14.466666;12.966666;9.000000
77516;PMS7003;68414;53.946;27.634;2024-02-16T01:36:30;13.533334;12.866667;9.700000
77516;PMS7003;68414;53.946;27.634;2024-02-16T01:37:30;13.416667;12.983334;9.616667
77516;PMS7003;68414;53.946;27.634;2024-02-16T01:38:31;12.383333;11.933333;9.483334
77516;PMS7003;68414;53.946;27.634;2024-02-16T01:39:30;12.033334;11.900000;8.766666
77516;PMS7003;68414;53.946;27.634;2024-02-16T01:40:31;14.933333;12.716666;9.716666
77516;PMS7003;68414;53.946;27.634;2024-02-16T01:41:30;13.333333;11.883333;9.050000
77516;PMS7003;68414;53.946;27.634;2024-02-16T01:42:30;12.683333;11.100000;8.950000
77516;PMS7003;68414;53.946;27.634;2024-02-16T01:43:30;12.983334;11.850000;9.183333
77516;PMS7003;68414;53.946;27.634;2024-02-16T01:44:30;15.033334;13.916667;9.183333
77516;PMS7003;68414;53.946;27.634;2024-02-16T01:45:31;15.883333;14.850000;10.566667
77516;PMS7003;68414;53.946;27.634;2024-02-16T01:46:31;14.950000;13.266666;10.000000
77516;PMS7003;68414;53.946;27.634;2024-02-16T01:47:30;15.933333;13.050000;9.783334
77516;PMS7003;68414;53.946;27.634;2024-02-16T01:48:31;12.516666;11.483334;9.050000
77516;PMS7003;68414;53.946;27.634;2024-02-16T01:49:30;13.783334;12.416667;9.433333
77516;PMS7003;68414;53.946;27.634;2024-02-16T01:50:31;13.750000;12.233334;9.283334
77516;PMS7003;68414;53.946;27.634;2024-02-16T01:51:31;13.166667;12.183333;8.866667
77516;PMS7003;68414;53.946;27.634;2024-02-16T01:52:32;13.433333;12.616667;9.083333
77516;PMS7003;68414;53.946;27.634;2024-02-16T01:53:31;12.733334;11.700000;9.000000
77516;PMS7003;68414;53.946;27.634;2024-02-16T01:54:31;14.266666;11.683333;8.783334
77516;PMS7003;68414;53.946;27.634;2024-02-16T01:55:31;14.566667;12.400000;9.483334
77516;PMS7003;68414;53.946;27.634;2024-02-16T01:56:31;14.766666;13.033334;9.983334
77516;PMS7003;68414;53.946;27.634;2024-02-16T01:57:31;13.733334;11.983334;9.383333
77516;PMS7003;68414;53.946;27.634;2024-02-16T01:58:31;13.983334;12.383333;8.650000
77516;PMS7003;68414;53.946;27.634;2024-02-16T01:59:30;14.266666;13.200000;10.000000
77516;PMS7003;68414;53.946;27.634;2024-02-16T02:00:30;14.533334;12.966666;9.316667
77516;PMS7003;68414;53.946;27.634;2024-02-16T02:01:30;15.350000;14.366667;9.633333
77516;PMS7003;68414;53.946;27.634;2024-02-16T02:02:30;12.650000;11.983334;9.083333
77516;PMS7003;68414;53.946;27.634;2024-02-16T02:03:30;13.416667;12.683333;9.866667
77516;PMS7003;68414;53.946;27.634;2024-02-16T02:04:31;16.000000;14.833333;10.266666
77516;PMS7003;68414;53.946;27.634;2024-02-16T02:05:31;13.066667;12.850000;9.866667
77516;PMS7003;68414;53.946;27.634;2024-02-16T02:06:30;13.450000;13.016666;9.750000
77516;PMS7003;68414;53.946;27.634;2024-02-16T02:07:30;14.216666;12.616667;9.783334
77516;PMS7003;68414;53.946;27.634;2024-02-16T02:08:30;15.666667;12.500000;9.800000
77516;PMS7003;68414;53.946;27.634;2024-02-16T02:09:30;19.250000;15.916667;10.183333
77516;PMS7003;68414;53.946;27.634;2024-02-16T02:10:30;17.900000;14.616667;10.633333
77516;PMS7003;68414;53.946;27.634;2024-02-16T02:11:30;14.966666;14.000000;9.716666
77516;PMS7003;68414;53.946;27.634;2024-02-16T02:12:30;17.233334;16.233334;10.316667
77516;PMS7003;68414;53.946;27.634;2024-02-16T02:13:30;13.750000;13.133333;10.066667
77516;PMS7003;68414;53.946;27.634;2024-02-16T02:14:30;14.750000;13.016666;9.400000
77516;PMS7003;68414;53.946;27.634;2024-02-16T02:15:30;16.750000;13.950000;9.833333
77516;PMS7003;68414;53.946;27.634;2024-02-16T02:16:31;14.583333;14.100000;10.666667
77516;PMS7003;68414;53.946;27.634;2024-02-16T02:17:30;18.133333;15.116667;10.333333
77516;PMS7003;68414;53.946;27.634;2024-02-16T02:18:30;17.350000;15.450000;10.833333
77516;PMS7003;68414;53.946;27.634;2024-02-16T02:19:30;15.633333;13.716666;9.916667
77516;PMS7003;68414;53.946;27.634;2024-02-16T02:20:30;16.333334;14.516666;9.966666
77516;PMS7003;68414;53.946;27.634;2024-02-16T02:21:30;14.166667;13.333333;10.316667
77516;PMS7003;68414;53.946;27.634;2024-02-16T02:22:30;18.366667;16.283333;10.850000
77516;PMS7003;68414;53.946;27.634;2024-02-16T02:23:31;16.750000;14.283334;9.633333
77516;PMS7003;68414;53.946;27.634;2024-02-16T02:24:30;19.116667;16.500000;10.866667
77516;PMS7003;68414;53.946;27.634;2024-02-16T02:25:30;16.700001;15.283334;10.216666
77516;PMS7003;68414;53.946;27.634;2024-02-16T02:26:30;18.883333;17.433332;10.583333
77516;PMS7003;68414;53.946;27.634;2024-02-16T02:27:31;19.516666;16.716667;11.866667
77516;PMS7003;68414;53.946;27.634;2024-02-16T02:28:30;20.083334;18.150000;11.583333
77516;PMS7003;68414;53.946;27.634;2024-02-16T02:29:30;18.583334;17.166666;11.133333
77516;PMS7003;68414;53.946;27.634;2024-02-16T02:30:30;17.416666;15.033334;10.383333
77516;PMS7003;68414;53.946;27.634;2024-02-16T02:31:30;16.700001;15.233334;10.650000
77516;PMS7003;68414;53.946;27.634;2024-02-16T02:32:30;14.933333;14.933333;10.600000
77516;PMS7003;68414;53.946;27.634;2024-02-16T02:33:31;17.066668;15.650000;10.216666
77516;PMS7003;68414;53.946;27.634;2024-02-16T02:34:31;18.483334;17.366667;12.700000
77516;PMS7003;68414;53.946;27.634;2024-02-16T02:35:30;15.600000;15.016666;11.150000
77516;PMS7003;68414;53.946;27.634;2024-02-16T02:36:31;14.716666;13.933333;9.833333
77516;PMS7003;68414;53.946;27.634;2024-02-16T02:37:30;16.700001;15.050000;9.733334
77516;PMS7003;68414;53.946;27.634;2024-02-16T02:38:30;17.049999;14.333333;10.366667
77516;PMS7003;68414;53.946;27.634;2024-02-16T02:39:31;16.116667;14.733334;9.766666
77516;PMS7003;68414;53.946;27.634;2024-02-16T02:40:30;14.966666;13.233334;9.633333
77516;PMS7003;68414;53.946;27.634;2024-02-16T02:41:30;15.016666;14.483334;10.000000
77516;PMS7003;68414;53.946;27.634;2024-02-16T02:42:30;13.000000;12.633333;9.500000
77516;PMS7003;68414;53.946;27.634;2024-02-16T02:43:30;16.366667;15.233334;10.466666
77516;PMS7003;68414;53.946;27.634;2024-02-16T02:44:30;17.000000;13.650000;9.933333
77516;PMS7003;68414;53.946;27.634;2024-02-16T02:45:30;15.050000;14.333333;10.016666
77516;PMS7003;68414;53.946;27.634;2024-02-16T02:46:31;15.683333;14.233334;9.633333
77516;PMS7003;68414;53.946;27.634;2024-02-16T02:47:30;17.333334;13.066667;9.666667
77516;PMS7003;68414;53.946;27.634;2024-02-16T02:48:30;13.933333;11.833333;9.183333
77516;PMS7003;68414;53.946;27.634;2024-02-16T02:49:30;15.016666;13.783334;9.783334
77516;PMS7003;68414;53.946;27.634;2024-02-16T02:50:30;14.916667;13.333333;9.083333
77516;PMS7003;68414;53.946;27.634;2024-02-16T02:51:30;13.933333;13.083333;9.700000
77516;PMS7003;68414;53.946;27.634;2024-02-16T02:52:30;13.866667;12.716666;9.200000
77516;PMS7003;68414;53.946;27.634;2024-02-16T02:53:30;14.600000;13.433333;9.733334
77516;PMS7003;68414;53.946;27.634;2024-02-16T02:54:30;17.966667;16.549999;12.116667
77516;PMS7003;68414;53.946;27.634;2024-02-16T02:55:30;14.100000;12.716666;9.133333
77516;PMS7003;68414;53.946;27.634;2024-02-16T02:56:30;14.616667;13.150000;9.466666
77516;PMS7003;68414;53.946;27.634;2024-02-16T02:57:30;12.783334;12.483334;9.600000
77516;PMS7003;68414;53.946;27.634;2024-02-16T02:58:30;13.116667;12.016666;8.933333
77516;PMS7003;68414;53.946;27.634;2024-02-16T02:59:30;14.550000;12.083333;9.116667
77516;PMS7003;68414;53.946;27.634;2024-02-16T03:00:32;14.616667;12.550000;9.800000
77516;PMS7003;68414;53.946;27.634;2024-02-16T03:01:30;12.533334;11.616667;8.900000
77516;PMS7003;68414;53.946;27.634;2024-02-16T03:02:32;13.433333;12.466666;9.066667
77516;PMS7003;68414;53.946;27.634;2024-02-16T03:03:30;15.466666;13.316667;8.916667
77516;PMS7003;68414;53.946;27.634;2024-02-16T03:04:30;15.350000;13.300000;9.150000
77516;PMS7003;68414;53.946;27.634;2024-02-16T03:05:30;15.083333;14.216666;9.416667
77516;PMS7003;68414;53.946;27.634;2024-02-16T03:06:30;13.566667;12.250000;8.883333
77516;PMS7003;68414;53.946;27.634;2024-02-16T03:07:30;13.150000;12.416667;8.950000
77516;PMS7003;68414;53.946;27.634;2024-02-16T03:08:30;15.550000;12.150000;9.116667
77516;PMS7003;68414;53.946;27.634;2024-02-16T03:09:30;16.983334;15.666667;9.550000
77516;PMS7003;68414;53.946;27.634;2024-02-16T03:10:30;15.433333;14.283334;9.650000
77516;PMS7003;68414;53.946;27.634;2024-02-16T03:11:30;14.916667;13.333333;9.583333
77516;PMS7003;68414;53.946;27.634;2024-02-16T03:12:31;13.916667;12.650000;9.383333
77516;PMS7003;68414;53.946;27.634;2024-02-16T03:13:31;14.900000;13.066667;9.016666
77516;PMS7003;68414;53.946;27.634;2024-02-16T03:14:30;14.550000;12.566667;9.516666
77516;PMS7003;68414;53.946;27.634;2024-02-16T03:15:30;15.850000;12.966666;9.116667
77516;PMS7003;68414;53.946;27.634;2024-02-16T03:16:31;12.783334;11.683333;9.566667
77516;PMS7003;68414;53.946;27.634;2024-02-16T03:17:32;13.000000;12.200000;9.100000
77516;PMS7003;68414;53.946;27.634;2024-02-16T03:18:31;16.566668;15.016666;10.466666
77516;PMS7003;68414;53.946;27.634;2024-02-16T03:19:30;18.450001;16.400000;10.166667
77516;PMS7003;68414;53.946;27.634;2024-02-16T03:20:30;13.733334;12.600000;9.850000
77516;PMS7003;68414;53.946;27.634;2024-02-16T03:21:30;14.583333;12.300000;9.383333
77516;PMS7003;68414;53.946;27.634;2024-02-16T03:22:30;16.000000;13.583333;9.566667
77516;PMS7003;68414;53.946;27.634;2024-02-16T03:23:30;16.583334;15.650000;10.833333
77516;PMS7003;68414;53.946;27.634;2024-02-16T03:24:30;15.616667;14.416667;10.383333
77516;PMS7003;68414;53.946;27.634;2024-02-16T03:25:30;15.833333;13.216666;9.383333
77516;PMS7003;68414;53.946;27.634;2024-02-16T03:26:30;15.500000;14.300000;10.116667
77516;PMS7003;68414;53.946;27.634;2024-02-16T03:27:31;13.916667;12.450000;9.466666
77516;PMS7003;68414;53.946;27.634;2024-02-16T03:28:30;15.550000;14.433333;10.183333
77516;PMS7003;68414;53.946;27.634;2024-02-16T03:29:30;13.600000;12.033334;8.983334
77516;PMS7003;68414;53.946;27.634;2024-02-16T03:30:30;15.916667;14.433333;10.350000
77516;PMS7003;68414;53.946;27.634;2024-02-16T03:31:30;15.050000;13.083333;9.083333
77516;PMS7003;68414;53.946;27.634;2024-02-16T03:32:31;13.666667;12.366667;9.150000
77516;PMS7003;68414;53.946;27.634;2024-02-16T03:33:30;16.000000;15.033334;10.116667
77516;PMS7003;68414;53.946;27.634;2024-02-16T03:34:30;14.150000;13.166667;10.000000
77516;PMS7003;68414;53.946;27.634;2024-02-16T03:35:30;15.633333;13.283334;9.366667
77516;PMS7003;68414;53.946;27.634;2024-02-16T03:36:30;15.500000;12.650000;9.633333
77516;PMS7003;68414;53.946;27.634;2024-02-16T03:37:31;17.033333;15.750000;10.233334
77516;PMS7003;68414;53.946;27.634;2024-02-16T03:38:30;13.950000;13.383333;9.933333
77516;PMS7003;68414;53.946;27.634;2024-02-16T03:39:32;16.250000;13.433333;10.150000
77516;PMS7003;68414;53.946;27.634;2024-02-16T03:40:31;14.583333;13.100000;9.116667
77516;PMS7003;68414;53.946;27.634;2024-02-16T03:41:32;14.316667;13.700000;9.866667
77516;PMS7003;68414;53.946;27.634;2024-02-16T03:42:30;13.883333;12.600000;9.316667
77516;PMS7003;68414;53.946;27.634;2024-02-16T03:43:30;14.716666;13.050000;9.933333
77516;PMS7003;68414;53.946;27.634;2024-02-16T03:44:32;14.500000;12.983334;8.700000
77516;PMS7003;68414;53.946;27.634;2024-02-16T03:45:30;15.950000;14.300000;9.783334
77516;PMS7003;68414;53.946;27.634;2024-02-16T03:46:30;17.100000;15.100000;9.800000
77516;PMS7003;68414;53.946;27.634;2024-02-16T03:47:30;13.633333;12.600000;9.816667
77516;PMS7003;68414;53.946;27.634;2024-02-16T03:48:30;13.233334;12.916667;9.700000
77516;PMS7003;68414;53.946;27.634;2024-02-16T03:49:30;13.150000;12.566667;9.783334
77516;PMS7003;68414;53.946;27.634;2024-02-16T03:50:30;17.133333;15.400000;10.500000
77516;PMS7003;68414;53.946;27.634;2024-02-16T03:51:32;19.133333;16.466667;10.866667
77516;PMS7003;68414;53.946;27.634;2024-02-16T03:52:31;15.483334;15.066667;9.733334
77516;PMS7003;68414;53.946;27.634;2024-02-16T03:53:30;16.683332;15.616667;10.700000
77516;PMS7003;68414;53.946;27.634;2024-02-16T03:54:30;13.850000;13.850000;10.033334
77516;PMS7003;68414;53.946;27.634;2024-02-16T03:55:30;14.000000;13.883333;9.666667
77516;PMS7003;68414;53.946;27.634;2024-02-16T03:56:31;19.683332;17.083334;10.233334
77516;PMS7003;68414;53.946;27.634;2024-02-16T03:57:31;16.350000;14.700000;10.333333
77516;PMS7003;68414;53.946;27.634;2024-02-16T03:58:31;15.883333;12.950000;9.100000
77516;PMS7003;68414;53.946;27.634;2024-02-16T03:59:30;16.733334;15.383333;10.500000
77516;PMS7003;68414;53.946;27.634;2024-02-16T04:00:30;20.033333;18.183332;11.183333
77516;PMS7003;68414;53.946;27.634;2024-02-16T04:01:31;18.183332;16.500000;9.783334
77516;PMS7003;68414;53.946;27.634;2024-02-16T04:02:30;15.733334;14.100000;10.350000
77516;PMS7003;68414;53.946;27.634;2024-02-16T04:03:30;15.683333;13.900000;10.133333
77516;PMS7003;68414;53.946;27.634;2024-02-16T04:04:30;16.033333;13.633333;10.833333
77516;PMS7003;68414;53.946;27.634;2024-02-16T04:05:30;15.150000;14.316667;10.333333
77516;PMS7003;68414;53.946;27.634;2024-02-16T04:06:30;14.450000;13.166667;9.716666
77516;PMS7003;68414;53.946;27.634;2024-02-16T04:07:30;17.700001;16.100000;10.983334
77516;PMS7003;68414;53.946;27.634;2024-02-16T04:08:30;14.716666;14.150000;9.866667
77516;PMS7003;68414;53.946;27.634;2024-02-16T04:09:30;15.750000;14.600000;9.916667
77516;PMS7003;68414;53.946;27.634;2024-02-16T04:10:32;15.200000;14.850000;10.316667
77516;PMS7003;68414;53.946;27.634;2024-02-16T04:11:31;15.366667;13.566667;9.166667
77516;PMS7003;68414;53.946;27.634;2024-02-16T04:12:32;14.716666;14.283334;9.950000
77516;PMS7003;68414;53.946;27.634;2024-02-16T04:13:30;15.833333;14.616667;11.233334
77516;PMS7003;68414;53.946;27.634;2024-02-16T04:14:30;14.566667;12.700000;9.916667
77516;PMS7003;68414;53.946;27.634;2024-02-16T04:15:30;18.200001;16.033333;10.300000
77516;PMS7003;68414;53.946;27.634;2024-02-16T04:16:30;16.233334;15.083333;10.300000
77516;PMS7003;68414;53.946;27.634;2024-02-16T04:17:30;15.083333;13.983334;10.350000
77516;PMS7003;68414;53.946;27.634;2024-02-16T04:18:30;15.166667;14.333333;9.700000
77516;PMS7003;68414;53.946;27.634;2024-02-16T04:19:30;16.533333;16.233334;10.516666
77516;PMS7003;68414;53.946;27.634;2024-02-16T04:20:30;13.166667;13.166667;10.183333
77516;PMS7003;68414;53.946;27.634;2024-02-16T04:21:30;15.600000;14.433333;10.683333
77516;PMS7003;68414;53.946;27.634;2024-02-16T04:22:30;15.850000;14.516666;10.166667
77516;PMS7003;68414;53.946;27.634;2024-02-16T04:23:30;15.716666;14.750000;9.933333
77516;PMS7003;68414;53.946;27.634;2024-02-16T04:24:30;17.500000;16.383333;11.000000
77516;PMS7003;68414;53.946;27.634;2024-02-16T04:25:30;16.783333;16.583334;10.833333
77516;PMS7003;68414;53.946;27.634;2024-02-16T04:26:31;16.383333;15.166667;10.516666
77516;PMS7003;68414;53.946;27.634;2024-02-16T04:27:30;17.600000;16.200001;10.916667
77516;PMS7003;68414;53.946;27.634;2024-02-16T04:28:30;18.600000;17.549999;11.600000
77516;PMS7003;68414;53.946;27.634;2024-02-16T04:29:30;19.400000;18.366667;12.433333
77516;PMS7003;68414;53.946;27.634;2024-02-16T04:30:30;19.166666;17.816668;11.533334
77516;PMS7003;68414;53.946;27.634;2024-02-16T04:31:30;21.516666;19.083334;13.250000
77516;PMS7003;68414;53.946;27.634;2024-02-16T04:32:31;19.383333;18.283333;11.750000
77516;PMS7003;68414;53.946;27.634;2024-02-16T04:33:32;19.583334;18.016666;13.066667
77516;PMS7003;68414;53.946;27.634;2024-02-16T04:34:30;20.650000;19.183332;13.333333
77516;PMS7003;68414;53.946;27.634;2024-02-16T04:35:30;17.666666;17.333334;11.750000
77516;PMS7003;68414;53.946;27.634;2024-02-16T04:36:30;20.250000;18.049999;11.783334
77516;PMS7003;68414;53.946;27.634;2024-02-16T04:37:30;17.983334;17.350000;13.033334
77516;PMS7003;68414;53.946;27.634;2024-02-16T04:38:30;21.966667;20.066668;12.216666
77516;PMS7003;68414;53.946;27.634;2024-02-16T04:39:30;22.016666;19.983334;13.466666
77516;PMS7003;68414;53.946;27.634;2024-02-16T04:41:30;23.600000;22.083334;14.783334
77516;PMS7003;68414;53.946;27.634;2024-02-16T04:42:30;21.783333;20.666666;14.133333
77516;PMS7003;68414;53.946;27.634;2024-02-16T04:43:30;19.383333;18.750000;13.416667
77516;PMS7003;68414;53.946;27.634;2024-02-16T04:44:30;19.066668;17.683332;12.366667
77516;PMS7003;68414;53.946;27.634;2024-02-16T04:45:30;21.583334;19.350000;12.516666
77516;PMS7003;68414;53.946;27.634;2024-02-16T04:46:30;46.883335;39.133335;23.633333
77516;PMS7003;68414;53.946;27.634;2024-02-16T04:47:30;23.600000;20.983334;14.750000
77516;PMS7003;68414;53.946;27.634;2024-02-16T04:48:30;18.966667;17.066668;12.016666
77516;PMS7003;68414;53.946;27.634;2024-02-16T04:49:31;19.516666;18.583334;12.816667
77516;PMS7003;68414;53.946;27.634;2024-02-16T04:50:32;20.700001;18.016666;13.150000
77516;PMS7003;68414;53.946;27.634;2024-02-16T04:51:30;25.033333;21.933332;14.300000
77516;PMS7003;68414;53.946;27.634;2024-02-16T04:52:30;31.733334;28.950001;18.483334
77516;PMS7003;68414;53.946;27.634;2024-02-16T04:53:30;21.100000;19.383333;13.016666
77516;PMS7003;68414;53.946;27.634;2024-02-16T04:54:30;20.549999;18.883333;12.216666
77516;PMS7003;68414;53.946;27.634;2024-02-16T04:55:31;20.450001;17.916666;12.383333